sensor_id;sensor_type;location;lat;lon;timestamp;P1;durP1;ratioP1;P2;durP2;ratioP2
62957;SDS011;49056;48.352;10.926;2023-08-24T00:02:10;3.20;;;2.00;;
62957;SDS011;49056;48.352;10.926;2023-08-24T00:07:31;2.67;;;1.90;;
62957;SDS011;49056;48.352;10.926;2023-08-24T00:12:52;3.08;;;2.00;;
62957;SDS011;49056;48.352;10.926;2023-08-24T00:18:12;2.70;;;1.67;;
62957;SDS011;49056;48.352;10.926;2023-08-24T00:23:32;2.90;;;1.67;;
62957;SDS011;49056;48.352;10.926;2023-08-24T00:28:53;3.53;;;2.20;;
62957;SDS011;49056;48.352;10.926;2023-08-24T00:34:14;3.33;;;2.20;;
62957;SDS011;49056;48.352;10.926;2023-08-24T00:39:34;2.70;;;1.85;;
62957;SDS011;49056;48.352;10.926;2023-08-24T00:44:55;4.12;;;2.42;;
62957;SDS011;49056;48.352;10.926;2023-08-24T00:50:16;2.92;;;2.05;;
62957;SDS011;49056;48.352;10.926;2023-08-24T00:55:36;2.35;;;1.80;;
62957;SDS011;49056;48.352;10.926;2023-08-24T01:00:57;3.80;;;2.20;;
62957;SDS011;49056;48.352;10.926;2023-08-24T01:06:17;3.17;;;2.13;;
62957;SDS011;49056;48.352;10.926;2023-08-24T01:17:08;4.28;;;1.87;;
62957;SDS011;49056;48.352;10.926;2023-08-24T01:22:32;3.12;;;1.90;;
62957;SDS011;49056;48.352;10.926;2023-08-24T01:27:53;2.72;;;2.25;;
62957;SDS011;49056;48.352;10.926;2023-08-24T01:33:14;2.90;;;2.22;;
62957;SDS011;49056;48.352;10.926;2023-08-24T01:38:35;2.87;;;1.80;;
62957;SDS011;49056;48.352;10.926;2023-08-24T01:43:55;2.47;;;1.90;;
62957;SDS011;49056;48.352;10.926;2023-08-24T01:49:17;4.10;;;2.30;;
62957;SDS011;49056;48.352;10.926;2023-08-24T01:54:38;2.45;;;2.00;;
62957;SDS011;49056;48.352;10.926;2023-08-24T01:59:59;3.95;;;2.28;;
62957;SDS011;49056;48.352;10.926;2023-08-24T02:05:19;3.10;;;1.87;;
62957;SDS011;49056;48.352;10.926;2023-08-24T02:10:40;2.65;;;1.95;;
62957;SDS011;49056;48.352;10.926;2023-08-24T02:16:04;2.67;;;1.95;;
62957;SDS011;49056;48.352;10.926;2023-08-24T02:21:24;3.95;;;2.20;;
62957;SDS011;49056;48.352;10.926;2023-08-24T02:26:45;3.05;;;1.90;;
62957;SDS011;49056;48.352;10.926;2023-08-24T02:32:05;2.97;;;2.10;;
62957;SDS011;49056;48.352;10.926;2023-08-24T02:37:25;2.43;;;2.20;;
62957;SDS011;49056;48.352;10.926;2023-08-24T02:42:46;3.00;;;2.03;;
62957;SDS011;49056;48.352;10.926;2023-08-24T02:48:06;2.63;;;1.80;;
62957;SDS011;49056;48.352;10.926;2023-08-24T02:53:26;2.43;;;1.60;;
62957;SDS011;49056;48.352;10.926;2023-08-24T02:58:47;2.10;;;1.70;;
62957;SDS011;49056;48.352;10.926;2023-08-24T03:04:07;2.58;;;1.95;;
62957;SDS011;49056;48.352;10.926;2023-08-24T03:09:28;2.58;;;1.77;;
62957;SDS011;49056;48.352;10.926;2023-08-24T03:14:51;4.07;;;2.00;;
62957;SDS011;49056;48.352;10.926;2023-08-24T03:20:11;2.62;;;1.87;;
62957;SDS011;49056;48.352;10.926;2023-08-24T03:25:34;2.70;;;1.70;;
62957;SDS011;49056;48.352;10.926;2023-08-24T03:30:55;3.22;;;2.10;;
62957;SDS011;49056;48.352;10.926;2023-08-24T03:36:15;2.63;;;1.80;;
62957;SDS011;49056;48.352;10.926;2023-08-24T03:41:36;2.83;;;1.87;;
62957;SDS011;49056;48.352;10.926;2023-08-24T03:46:56;2.35;;;1.73;;
62957;SDS011;49056;48.352;10.926;2023-08-24T03:52:16;2.42;;;1.65;;
62957;SDS011;49056;48.352;10.926;2023-08-24T03:57:36;2.55;;;1.90;;
62957;SDS011;49056;48.352;10.926;2023-08-24T04:02:58;3.70;;;2.42;;
62957;SDS011;49056;48.352;10.926;2023-08-24T04:08:18;2.73;;;2.07;;
62957;SDS011;49056;48.352;10.926;2023-08-24T04:13:38;2.97;;;2.00;;
62957;SDS011;49056;48.352;10.926;2023-08-24T04:18:59;2.87;;;2.05;;
62957;SDS011;49056;48.352;10.926;2023-08-24T04:24:19;2.92;;;1.92;;
62957;SDS011;49056;48.352;10.926;2023-08-24T04:29:39;3.80;;;2.53;;
62957;SDS011;49056;48.352;10.926;2023-08-24T04:34:59;3.17;;;2.20;;
62957;SDS011;49056;48.352;10.926;2023-08-24T04:40:20;3.07;;;2.30;;
62957;SDS011;49056;48.352;10.926;2023-08-24T04:45:40;2.67;;;1.83;;
62957;SDS011;49056;48.352;10.926;2023-08-24T04:51:01;2.87;;;2.25;;
62957;SDS011;49056;48.352;10.926;2023-08-24T04:56:22;3.42;;;2.00;;
62957;SDS011;49056;48.352;10.926;2023-08-24T05:01:42;2.85;;;2.25;;
62957;SDS011;49056;48.352;10.926;2023-08-24T05:07:02;3.83;;;2.40;;
62957;SDS011;49056;48.352;10.926;2023-08-24T05:12:22;2.47;;;1.90;;
62957;SDS011;49056;48.352;10.926;2023-08-24T05:17:43;2.22;;;1.80;;
62957;SDS011;49056;48.352;10.926;2023-08-24T05:23:03;3.53;;;2.25;;
62957;SDS011;49056;48.352;10.926;2023-08-24T05:28:24;2.45;;;1.95;;
62957;SDS011;49056;48.352;10.926;2023-08-24T05:33:44;2.95;;;2.10;;
62957;SDS011;49056;48.352;10.926;2023-08-24T05:39:05;3.17;;;2.00;;
62957;SDS011;49056;48.352;10.926;2023-08-24T05:44:25;2.33;;;1.90;;
62957;SDS011;49056;48.352;10.926;2023-08-24T05:49:45;2.70;;;2.10;;
62957;SDS011;49056;48.352;10.926;2023-08-24T05:55:06;2.35;;;1.87;;
62957;SDS011;49056;48.352;10.926;2023-08-24T06:00:26;4.85;;;2.25;;
62957;SDS011;49056;48.352;10.926;2023-08-24T06:05:46;2.90;;;1.98;;
62957;SDS011;49056;48.352;10.926;2023-08-24T06:11:07;2.83;;;2.03;;
62957;SDS011;49056;48.352;10.926;2023-08-24T06:16:27;2.93;;;1.93;;
62957;SDS011;49056;48.352;10.926;2023-08-24T06:21:48;2.62;;;1.98;;
62957;SDS011;49056;48.352;10.926;2023-08-24T06:27:08;2.58;;;1.58;;
62957;SDS011;49056;48.352;10.926;2023-08-24T06:32:29;3.30;;;1.87;;
62957;SDS011;49056;48.352;10.926;2023-08-24T06:37:49;2.00;;;1.73;;
62957;SDS011;49056;48.352;10.926;2023-08-24T06:43:09;3.97;;;1.85;;
62957;SDS011;49056;48.352;10.926;2023-08-24T06:48:29;2.95;;;2.00;;
62957;SDS011;49056;48.352;10.926;2023-08-24T06:53:50;3.28;;;1.83;;
62957;SDS011;49056;48.352;10.926;2023-08-24T06:59:11;2.50;;;1.50;;
62957;SDS011;49056;48.352;10.926;2023-08-24T07:04:33;2.25;;;1.60;;
62957;SDS011;49056;48.352;10.926;2023-08-24T07:09:54;2.22;;;1.48;;
62957;SDS011;49056;48.352;10.926;2023-08-24T07:15:14;3.17;;;2.20;;
62957;SDS011;49056;48.352;10.926;2023-08-24T07:20:37;2.60;;;2.03;;
62957;SDS011;49056;48.352;10.926;2023-08-24T07:25:57;2.42;;;1.67;;
62957;SDS011;49056;48.352;10.926;2023-08-24T07:31:18;3.22;;;2.22;;
62957;SDS011;49056;48.352;10.926;2023-08-24T07:36:38;2.80;;;1.92;;
62957;SDS011;49056;48.352;10.926;2023-08-24T07:41:59;3.45;;;2.10;;
62957;SDS011;49056;48.352;10.926;2023-08-24T07:47:19;1.80;;;1.48;;
62957;SDS011;49056;48.352;10.926;2023-08-24T07:52:40;2.83;;;2.00;;
62957;SDS011;49056;48.352;10.926;2023-08-24T07:58:01;2.97;;;2.08;;
62957;SDS011;49056;48.352;10.926;2023-08-24T08:03:21;3.60;;;2.33;;
62957;SDS011;49056;48.352;10.926;2023-08-24T08:08:41;2.77;;;2.03;;
62957;SDS011;49056;48.352;10.926;2023-08-24T08:14:02;4.07;;;2.27;;
62957;SDS011;49056;48.352;10.926;2023-08-24T08:19:22;2.97;;;2.20;;
62957;SDS011;49056;48.352;10.926;2023-08-24T08:24:45;3.40;;;2.20;;
62957;SDS011;49056;48.352;10.926;2023-08-24T08:30:05;3.70;;;2.35;;
62957;SDS011;49056;48.352;10.926;2023-08-24T08:35:26;2.58;;;1.70;;
62957;SDS011;49056;48.352;10.926;2023-08-24T08:40:46;3.72;;;2.25;;
62957;SDS011;49056;48.352;10.926;2023-08-24T08:46:08;4.12;;;2.30;;
62957;SDS011;49056;48.352;10.926;2023-08-24T08:51:29;3.03;;;1.87;;
62957;SDS011;49056;48.352;10.926;2023-08-24T08:56:49;4.00;;;2.43;;
62957;SDS011;49056;48.352;10.926;2023-08-24T09:02:11;4.62;;;2.83;;
62957;SDS011;49056;48.352;10.926;2023-08-24T09:07:34;3.12;;;2.05;;
62957;SDS011;49056;48.352;10.926;2023-08-24T09:12:54;3.35;;;2.25;;
62957;SDS011;49056;48.352;10.926;2023-08-24T09:18:14;4.00;;;2.60;;
62957;SDS011;49056;48.352;10.926;2023-08-24T09:23:35;2.78;;;1.95;;
62957;SDS011;49056;48.352;10.926;2023-08-24T09:28:55;3.47;;;2.53;;
62957;SDS011;49056;48.352;10.926;2023-08-24T09:34:18;3.20;;;2.13;;
62957;SDS011;49056;48.352;10.926;2023-08-24T09:39:39;3.87;;;2.37;;
62957;SDS011;49056;48.352;10.926;2023-08-24T09:45:03;2.35;;;1.80;;
62957;SDS011;49056;48.352;10.926;2023-08-24T09:50:24;3.05;;;2.12;;
62957;SDS011;49056;48.352;10.926;2023-08-24T10:01:09;3.55;;;2.58;;
62957;SDS011;49056;48.352;10.926;2023-08-24T10:06:29;4.07;;;2.62;;
62957;SDS011;49056;48.352;10.926;2023-08-24T10:11:52;6.57;;;3.30;;
62957;SDS011;49056;48.352;10.926;2023-08-24T10:17:13;3.62;;;2.58;;
62957;SDS011;49056;48.352;10.926;2023-08-24T10:22:34;3.45;;;2.28;;
62957;SDS011;49056;48.352;10.926;2023-08-24T10:27:54;3.40;;;2.70;;
62957;SDS011;49056;48.352;10.926;2023-08-24T10:33:15;3.80;;;2.10;;
62957;SDS011;49056;48.352;10.926;2023-08-24T10:38:39;3.55;;;1.95;;
62957;SDS011;49056;48.352;10.926;2023-08-24T10:44:05;5.20;;;3.47;;
62957;SDS011;49056;48.352;10.926;2023-08-24T10:49:31;3.75;;;2.62;;
62957;SDS011;49056;48.352;10.926;2023-08-24T10:54:52;3.53;;;2.50;;
62957;SDS011;49056;48.352;10.926;2023-08-24T11:00:13;3.45;;;2.67;;
62957;SDS011;49056;48.352;10.926;2023-08-24T11:05:33;3.13;;;2.07;;
62957;SDS011;49056;48.352;10.926;2023-08-24T11:10:55;2.87;;;1.73;;
62957;SDS011;49056;48.352;10.926;2023-08-24T11:16:38;3.47;;;2.15;;
62957;SDS011;49056;48.352;10.926;2023-08-24T11:21:57;3.92;;;2.40;;
62957;SDS011;49056;48.352;10.926;2023-08-24T11:27:19;2.42;;;1.70;;
62957;SDS011;49056;48.352;10.926;2023-08-24T11:32:40;3.45;;;2.50;;
62957;SDS011;49056;48.352;10.926;2023-08-24T11:38:00;3.08;;;1.87;;
62957;SDS011;49056;48.352;10.926;2023-08-24T11:43:27;4.47;;;2.60;;
62957;SDS011;49056;48.352;10.926;2023-08-24T11:48:47;3.30;;;2.20;;
62957;SDS011;49056;48.352;10.926;2023-08-24T11:54:08;3.60;;;2.20;;
62957;SDS011;49056;48.352;10.926;2023-08-24T11:59:28;3.40;;;2.03;;
62957;SDS011;49056;48.352;10.926;2023-08-24T12:04:49;2.70;;;1.73;;
62957;SDS011;49056;48.352;10.926;2023-08-24T12:10:09;3.85;;;2.00;;
62957;SDS011;49056;48.352;10.926;2023-08-24T12:15:29;2.83;;;1.90;;
62957;SDS011;49056;48.352;10.926;2023-08-24T12:20:50;2.17;;;1.62;;
62957;SDS011;49056;48.352;10.926;2023-08-24T12:26:17;3.55;;;2.03;;
62957;SDS011;49056;48.352;10.926;2023-08-24T12:31:37;2.40;;;1.65;;
62957;SDS011;49056;48.352;10.926;2023-08-24T12:37:02;3.77;;;1.97;;
62957;SDS011;49056;48.352;10.926;2023-08-24T12:42:22;3.15;;;1.45;;
62957;SDS011;49056;48.352;10.926;2023-08-24T12:47:42;3.37;;;1.80;;
62957;SDS011;49056;48.352;10.926;2023-08-24T12:53:03;4.50;;;1.93;;
62957;SDS011;49056;48.352;10.926;2023-08-24T12:58:26;3.90;;;2.22;;
62957;SDS011;49056;48.352;10.926;2023-08-24T13:03:46;3.00;;;1.83;;
62957;SDS011;49056;48.352;10.926;2023-08-24T13:09:06;3.40;;;1.75;;
62957;SDS011;49056;48.352;10.926;2023-08-24T13:14:27;3.15;;;1.92;;
62957;SDS011;49056;48.352;10.926;2023-08-24T13:19:47;2.83;;;1.95;;
62957;SDS011;49056;48.352;10.926;2023-08-24T13:25:09;3.12;;;1.90;;
62957;SDS011;49056;48.352;10.926;2023-08-24T13:30:29;3.00;;;1.87;;
62957;SDS011;49056;48.352;10.926;2023-08-24T13:35:50;2.80;;;1.58;;
62957;SDS011;49056;48.352;10.926;2023-08-24T13:41:10;2.07;;;1.37;;
62957;SDS011;49056;48.352;10.926;2023-08-24T13:46:30;3.78;;;2.37;;
62957;SDS011;49056;48.352;10.926;2023-08-24T13:51:50;4.22;;;2.05;;
62957;SDS011;49056;48.352;10.926;2023-08-24T13:57:11;4.28;;;1.73;;
62957;SDS011;49056;48.352;10.926;2023-08-24T14:02:31;2.83;;;1.70;;
62957;SDS011;49056;48.352;10.926;2023-08-24T14:07:51;2.15;;;1.40;;
62957;SDS011;49056;48.352;10.926;2023-08-24T14:13:12;2.85;;;2.10;;
62957;SDS011;49056;48.352;10.926;2023-08-24T14:18:32;4.57;;;1.83;;
62957;SDS011;49056;48.352;10.926;2023-08-24T14:23:52;2.27;;;1.60;;
62957;SDS011;49056;48.352;10.926;2023-08-24T14:29:13;2.62;;;1.37;;
62957;SDS011;49056;48.352;10.926;2023-08-24T14:34:34;3.20;;;1.87;;
62957;SDS011;49056;48.352;10.926;2023-08-24T14:39:54;2.70;;;1.73;;
62957;SDS011;49056;48.352;10.926;2023-08-24T14:45:15;2.73;;;1.87;;
62957;SDS011;49056;48.352;10.926;2023-08-24T14:50:39;3.37;;;1.52;;
62957;SDS011;49056;48.352;10.926;2023-08-24T14:55:59;2.08;;;1.62;;
62957;SDS011;49056;48.352;10.926;2023-08-24T15:01:19;2.78;;;1.60;;
62957;SDS011;49056;48.352;10.926;2023-08-24T15:06:40;2.63;;;1.43;;
62957;SDS011;49056;48.352;10.926;2023-08-24T15:12:00;3.10;;;1.42;;
62957;SDS011;49056;48.352;10.926;2023-08-24T15:17:20;3.42;;;1.70;;
62957;SDS011;49056;48.352;10.926;2023-08-24T15:22:41;2.92;;;1.80;;
62957;SDS011;49056;48.352;10.926;2023-08-24T15:28:01;2.20;;;1.77;;
62957;SDS011;49056;48.352;10.926;2023-08-24T15:33:21;2.73;;;1.60;;
62957;SDS011;49056;48.352;10.926;2023-08-24T15:38:42;3.25;;;1.50;;
62957;SDS011;49056;48.352;10.926;2023-08-24T15:44:02;2.17;;;1.50;;
62957;SDS011;49056;48.352;10.926;2023-08-24T15:49:23;2.25;;;1.50;;
62957;SDS011;49056;48.352;10.926;2023-08-24T15:54:44;2.83;;;1.83;;
62957;SDS011;49056;48.352;10.926;2023-08-24T16:00:05;2.53;;;1.63;;
62957;SDS011;49056;48.352;10.926;2023-08-24T16:05:32;2.95;;;1.50;;
62957;SDS011;49056;48.352;10.926;2023-08-24T16:10:55;2.25;;;1.40;;
62957;SDS011;49056;48.352;10.926;2023-08-24T16:16:16;2.97;;;2.10;;
62957;SDS011;49056;48.352;10.926;2023-08-24T16:21:36;3.15;;;2.12;;
62957;SDS011;49056;48.352;10.926;2023-08-24T16:26:57;2.73;;;1.87;;
62957;SDS011;49056;48.352;10.926;2023-08-24T16:32:17;2.80;;;1.70;;
62957;SDS011;49056;48.352;10.926;2023-08-24T16:37:37;2.87;;;1.83;;
62957;SDS011;49056;48.352;10.926;2023-08-24T16:42:58;2.62;;;1.85;;
62957;SDS011;49056;48.352;10.926;2023-08-24T16:48:18;3.43;;;2.13;;
62957;SDS011;49056;48.352;10.926;2023-08-24T16:53:38;2.92;;;1.87;;
62957;SDS011;49056;48.352;10.926;2023-08-24T16:58:58;2.50;;;1.75;;
62957;SDS011;49056;48.352;10.926;2023-08-24T17:04:19;4.57;;;2.12;;
62957;SDS011;49056;48.352;10.926;2023-08-24T17:09:39;3.70;;;2.50;;
62957;SDS011;49056;48.352;10.926;2023-08-24T17:14:59;3.35;;;1.90;;
62957;SDS011;49056;48.352;10.926;2023-08-24T17:20:20;4.95;;;2.10;;
62957;SDS011;49056;48.352;10.926;2023-08-24T17:25:41;2.40;;;1.73;;
62957;SDS011;49056;48.352;10.926;2023-08-24T17:31:03;2.90;;;2.08;;
62957;SDS011;49056;48.352;10.926;2023-08-24T17:36:24;4.62;;;2.17;;
62957;SDS011;49056;48.352;10.926;2023-08-24T17:41:44;4.50;;;2.47;;
62957;SDS011;49056;48.352;10.926;2023-08-24T17:47:06;4.32;;;2.35;;
62957;SDS011;49056;48.352;10.926;2023-08-24T17:52:26;3.50;;;2.40;;
62957;SDS011;49056;48.352;10.926;2023-08-24T17:57:47;3.23;;;2.30;;
62957;SDS011;49056;48.352;10.926;2023-08-24T18:03:07;4.53;;;2.17;;
62957;SDS011;49056;48.352;10.926;2023-08-24T18:08:27;3.20;;;1.85;;
62957;SDS011;49056;48.352;10.926;2023-08-24T18:13:48;2.85;;;2.00;;
62957;SDS011;49056;48.352;10.926;2023-08-24T18:19:08;3.97;;;2.27;;
62957;SDS011;49056;48.352;10.926;2023-08-24T18:24:29;3.03;;;1.87;;
62957;SDS011;49056;48.352;10.926;2023-08-24T18:29:49;2.67;;;2.10;;
62957;SDS011;49056;48.352;10.926;2023-08-24T18:35:09;2.37;;;1.90;;
62957;SDS011;49056;48.352;10.926;2023-08-24T18:40:30;3.53;;;2.05;;
62957;SDS011;49056;48.352;10.926;2023-08-24T18:45:54;2.47;;;1.75;;
62957;SDS011;49056;48.352;10.926;2023-08-24T18:51:15;3.37;;;1.93;;
62957;SDS011;49056;48.352;10.926;2023-08-24T18:56:35;8.33;;;2.10;;
62957;SDS011;49056;48.352;10.926;2023-08-24T19:01:55;3.03;;;2.05;;
62957;SDS011;49056;48.352;10.926;2023-08-24T19:07:16;3.15;;;2.00;;
62957;SDS011;49056;48.352;10.926;2023-08-24T19:12:37;3.03;;;2.12;;
62957;SDS011;49056;48.352;10.926;2023-08-24T19:17:57;3.10;;;1.83;;
62957;SDS011;49056;48.352;10.926;2023-08-24T19:23:18;2.40;;;1.70;;
62957;SDS011;49056;48.352;10.926;2023-08-24T19:28:38;2.47;;;1.93;;
62957;SDS011;49056;48.352;10.926;2023-08-24T19:33:58;3.20;;;1.70;;
62957;SDS011;49056;48.352;10.926;2023-08-24T19:39:19;3.30;;;1.90;;
62957;SDS011;49056;48.352;10.926;2023-08-24T19:44:40;2.60;;;1.87;;
62957;SDS011;49056;48.352;10.926;2023-08-24T19:50:00;4.10;;;2.10;;
62957;SDS011;49056;48.352;10.926;2023-08-24T19:55:21;3.23;;;1.97;;
62957;SDS011;49056;48.352;10.926;2023-08-24T20:00:41;2.10;;;1.73;;
62957;SDS011;49056;48.352;10.926;2023-08-24T20:06:02;3.25;;;2.10;;
62957;SDS011;49056;48.352;10.926;2023-08-24T20:11:24;2.47;;;1.90;;
62957;SDS011;49056;48.352;10.926;2023-08-24T20:16:50;2.85;;;1.77;;
62957;SDS011;49056;48.352;10.926;2023-08-24T20:22:10;3.60;;;1.60;;
62957;SDS011;49056;48.352;10.926;2023-08-24T20:27:30;3.05;;;1.62;;
62957;SDS011;49056;48.352;10.926;2023-08-24T20:32:52;2.97;;;1.33;;
62957;SDS011;49056;48.352;10.926;2023-08-24T20:38:12;3.78;;;1.30;;
62957;SDS011;49056;48.352;10.926;2023-08-24T20:43:33;2.08;;;1.17;;
62957;SDS011;49056;48.352;10.926;2023-08-24T20:48:53;2.40;;;1.10;;
62957;SDS011;49056;48.352;10.926;2023-08-24T20:54:14;2.73;;;0.90;;
62957;SDS011;49056;48.352;10.926;2023-08-24T20:59:34;1.77;;;1.20;;
62957;SDS011;49056;48.352;10.926;2023-08-24T21:04:54;2.25;;;0.77;;
62957;SDS011;49056;48.352;10.926;2023-08-24T21:10:15;2.00;;;0.93;;
62957;SDS011;49056;48.352;10.926;2023-08-24T21:15:35;1.47;;;0.80;;
62957;SDS011;49056;48.352;10.926;2023-08-24T21:20:57;3.00;;;2.40;;
62957;SDS011;49056;48.352;10.926;2023-08-24T21:26:19;2.72;;;0.90;;
62957;SDS011;49056;48.352;10.926;2023-08-24T21:31:39;1.77;;;1.17;;
62957;SDS011;49056;48.352;10.926;2023-08-24T21:36:59;2.07;;;0.63;;
62957;SDS011;49056;48.352;10.926;2023-08-24T21:42:22;1.60;;;0.98;;
62957;SDS011;49056;48.352;10.926;2023-08-24T21:47:43;3.10;;;1.20;;
62957;SDS011;49056;48.352;10.926;2023-08-24T21:53:03;2.07;;;0.90;;
62957;SDS011;49056;48.352;10.926;2023-08-24T21:58:24;1.40;;;0.63;;
62957;SDS011;49056;48.352;10.926;2023-08-24T22:03:44;1.37;;;0.67;;
62957;SDS011;49056;48.352;10.926;2023-08-24T22:09:04;0.90;;;0.50;;
62957;SDS011;49056;48.352;10.926;2023-08-24T22:14:25;1.90;;;0.73;;
62957;SDS011;49056;48.352;10.926;2023-08-24T22:19:46;1.73;;;0.93;;
62957;SDS011;49056;48.352;10.926;2023-08-24T22:25:06;1.43;;;0.63;;
62957;SDS011;49056;48.352;10.926;2023-08-24T22:30:27;4.40;;;1.17;;
62957;SDS011;49056;48.352;10.926;2023-08-24T22:35:47;2.15;;;0.50;;
62957;SDS011;49056;48.352;10.926;2023-08-24T22:41:08;3.12;;;0.80;;
62957;SDS011;49056;48.352;10.926;2023-08-24T22:46:28;1.75;;;0.73;;
62957;SDS011;49056;48.352;10.926;2023-08-24T22:51:48;2.10;;;0.60;;
62957;SDS011;49056;48.352;10.926;2023-08-24T22:57:08;2.45;;;1.08;;
62957;SDS011;49056;48.352;10.926;2023-08-24T23:02:30;2.00;;;0.70;;
62957;SDS011;49056;48.352;10.926;2023-08-24T23:07:51;1.47;;;0.70;;
62957;SDS011;49056;48.352;10.926;2023-08-24T23:13:11;1.58;;;0.85;;
62957;SDS011;49056;48.352;10.926;2023-08-24T23:18:31;1.17;;;0.65;;
62957;SDS011;49056;48.352;10.926;2023-08-24T23:23:52;1.63;;;0.80;;
62957;SDS011;49056;48.352;10.926;2023-08-24T23:29:12;1.70;;;0.80;;
62957;SDS011;49056;48.352;10.926;2023-08-24T23:34:33;1.25;;;0.68;;
62957;SDS011;49056;48.352;10.926;2023-08-24T23:39:54;1.23;;;0.52;;
62957;SDS011;49056;48.352;10.926;2023-08-24T23:45:14;1.60;;;0.70;;
62957;SDS011;49056;48.352;10.926;2023-08-24T23:50:34;1.10;;;0.60;;
62957;SDS011;49056;48.352;10.926;2023-08-24T23:55:55;1.77;;;0.70;;
